createdAt,value
2018-12-04T00:00:36.237Z,2.90
2018-12-04T00:01:40.043Z,3.00
2018-12-04T00:02:43.767Z,2.83
2018-12-04T00:03:47.525Z,3.60
2018-12-04T00:04:51.158Z,2.97
2018-12-04T00:05:54.762Z,4.70
2018-12-04T00:06:58.535Z,3.30
2018-12-04T00:08:02.415Z,3.43
2018-12-04T00:09:06.916Z,3.73
2018-12-04T00:10:10.654Z,6.53
2018-12-04T00:11:14.271Z,5.03
2018-12-04T00:12:17.879Z,4.23
2018-12-04T00:13:21.633Z,4.00
2018-12-04T00:14:25.422Z,4.07
2018-12-04T00:15:29.112Z,3.87
2018-12-04T00:16:32.804Z,3.40
2018-12-04T00:17:36.705Z,3.60
2018-12-04T00:18:40.290Z,4.60
2018-12-04T00:19:43.983Z,3.13
2018-12-04T00:20:47.582Z,4.00
2018-12-04T00:21:51.200Z,3.40
2018-12-04T00:22:54.805Z,3.70
2018-12-04T00:23:58.485Z,4.00
2018-12-04T00:25:02.225Z,4.80
2018-12-04T00:26:05.910Z,3.70
2018-12-04T00:27:09.587Z,3.70
2018-12-04T00:28:13.257Z,3.83
2018-12-04T00:29:16.942Z,4.50
2018-12-04T00:30:20.749Z,4.00
2018-12-04T00:31:24.498Z,4.10
2018-12-04T00:32:28.170Z,4.37
2018-12-04T00:33:31.789Z,3.63
2018-12-04T00:34:35.579Z,3.13
2018-12-04T00:35:39.169Z,4.07
2018-12-04T00:36:42.743Z,4.07
2018-12-04T00:37:46.337Z,3.70
2018-12-04T00:38:50.089Z,3.53
2018-12-04T00:39:53.778Z,3.43
2018-12-04T00:40:57.447Z,3.13
2018-12-04T00:42:01.122Z,3.40
2018-12-04T00:43:04.722Z,4.37
2018-12-04T00:44:08.469Z,3.87
2018-12-04T00:45:12.145Z,3.57
2018-12-04T00:46:15.829Z,4.83
2018-12-04T00:47:19.482Z,3.20
2018-12-04T00:48:23.279Z,4.40
2018-12-04T00:49:26.866Z,3.07
2018-12-04T00:50:30.663Z,4.33
2018-12-04T00:51:34.294Z,5.83
2018-12-04T00:52:38.041Z,3.57
2018-12-04T00:53:41.783Z,4.00
2018-12-04T00:54:45.384Z,5.30
2018-12-04T00:55:49.125Z,4.83
2018-12-04T00:56:52.957Z,4.10
2018-12-04T00:57:56.569Z,4.83
2018-12-04T00:59:00.337Z,4.23
2018-12-04T01:00:07.639Z,4.10
2018-12-04T01:01:11.374Z,4.03
2018-12-04T01:02:14.988Z,5.10
2018-12-04T01:03:18.669Z,4.13
2018-12-04T01:04:22.285Z,4.27
2018-12-04T01:05:26.037Z,5.17
2018-12-04T01:06:29.785Z,4.23
2018-12-04T01:07:33.582Z,4.87
2018-12-04T01:08:37.228Z,4.30
2018-12-04T01:09:41.024Z,4.27
2018-12-04T01:10:44.654Z,3.97
2018-12-04T01:11:48.262Z,3.50
2018-12-04T01:12:51.946Z,3.37
2018-12-04T01:13:55.616Z,3.70
2018-12-04T01:14:59.366Z,3.87
2018-12-04T01:16:02.974Z,4.13
2018-12-04T01:17:06.642Z,3.97
2018-12-04T01:18:10.390Z,3.50
2018-12-04T01:19:14.157Z,4.13
2018-12-04T01:20:17.926Z,3.83
2018-12-04T01:21:21.526Z,3.27
2018-12-04T01:22:25.338Z,3.43
2018-12-04T01:23:28.979Z,3.43
2018-12-04T01:24:32.666Z,3.10
2018-12-04T01:25:36.721Z,3.07
2018-12-04T01:26:40.341Z,5.20
2018-12-04T01:27:44.018Z,4.40
2018-12-04T01:28:47.694Z,3.83
2018-12-04T01:29:51.390Z,4.03
2018-12-04T01:30:55.038Z,3.70
2018-12-04T01:31:58.676Z,3.07
2018-12-04T01:33:02.572Z,3.70
2018-12-04T01:34:06.139Z,3.30
2018-12-04T01:35:09.906Z,3.23
2018-12-04T01:36:13.589Z,4.67
2018-12-04T01:37:17.274Z,3.40
2018-12-04T01:38:20.953Z,3.17
2018-12-04T01:39:24.630Z,3.10
2018-12-04T01:40:28.330Z,3.60
2018-12-04T01:41:32.009Z,3.70
2018-12-04T01:42:35.695Z,3.70
2018-12-04T01:43:39.317Z,3.73
2018-12-04T01:44:42.921Z,3.33
2018-12-04T01:45:46.540Z,3.37
2018-12-04T01:46:50.271Z,3.47
2018-12-04T01:47:53.843Z,3.20
2018-12-04T01:48:57.562Z,3.93
2018-12-04T01:50:01.167Z,3.10
2018-12-04T01:51:04.926Z,3.10
2018-12-04T01:52:08.744Z,2.97
2018-12-04T01:53:12.354Z,3.57
2018-12-04T01:54:15.958Z,4.17
2018-12-04T01:55:19.645Z,4.17
2018-12-04T01:56:23.257Z,3.90
2018-12-04T01:57:26.894Z,2.87
2018-12-04T01:58:30.624Z,3.23
2018-12-04T01:59:34.235Z,4.07
2018-12-04T02:00:37.865Z,3.17
2018-12-04T02:01:41.474Z,3.73
2018-12-04T02:02:45.253Z,3.80
2018-12-04T02:03:48.817Z,4.13
2018-12-04T02:04:52.493Z,3.53
2018-12-04T02:05:56.193Z,4.57
2018-12-04T02:06:59.906Z,3.90
2018-12-04T02:08:03.570Z,4.27
2018-12-04T02:09:07.447Z,4.80
2018-12-04T02:10:11.114Z,3.93
2018-12-04T02:11:14.738Z,4.50
2018-12-04T02:12:18.426Z,4.33
2018-12-04T02:13:22.029Z,4.03
2018-12-04T02:14:25.637Z,6.03
2018-12-04T02:15:29.319Z,4.77
2018-12-04T02:16:33.106Z,5.43
2018-12-04T02:17:36.721Z,4.67
2018-12-04T02:18:40.346Z,4.47
2018-12-04T02:19:44.131Z,4.67
2018-12-04T02:20:47.866Z,4.17
2018-12-04T02:21:51.621Z,4.30
2018-12-04T02:22:55.258Z,4.00
2018-12-04T02:23:58.857Z,5.67
2018-12-04T02:25:02.617Z,4.33
2018-12-04T02:26:06.342Z,4.90
2018-12-04T02:27:10.057Z,4.67
2018-12-04T02:28:13.665Z,3.90
2018-12-04T02:29:17.274Z,4.50
2018-12-04T02:30:20.953Z,4.73
2018-12-04T02:31:24.682Z,3.50
2018-12-04T02:32:28.374Z,4.90
2018-12-04T02:33:32.049Z,5.23
2018-12-04T02:34:35.800Z,4.90
2018-12-04T02:35:39.530Z,4.00
2018-12-04T02:36:43.202Z,4.27
2018-12-04T02:37:46.907Z,4.77
2018-12-04T02:38:50.534Z,4.77
2018-12-04T02:39:54.297Z,4.57
2018-12-04T02:40:58.030Z,4.50
2018-12-04T02:42:01.780Z,4.60
2018-12-04T02:43:05.370Z,4.10
2018-12-04T02:44:09.167Z,4.87
2018-12-04T02:45:12.794Z,3.97
2018-12-04T02:46:16.465Z,4.27
2018-12-04T02:47:20.210Z,4.63
2018-12-04T02:48:23.833Z,5.10
2018-12-04T02:49:27.528Z,3.77
2018-12-04T02:50:31.161Z,4.27
2018-12-04T02:51:34.898Z,4.20
2018-12-04T02:52:38.531Z,4.63
2018-12-04T02:53:42.227Z,4.40
2018-12-04T02:54:46.022Z,3.83
2018-12-04T02:55:49.757Z,4.67
2018-12-04T02:56:53.497Z,4.03
2018-12-04T02:58:00.161Z,3.97
2018-12-04T02:59:04.042Z,4.80
2018-12-04T03:00:08.597Z,4.10
2018-12-04T03:01:12.258Z,5.07
2018-12-04T03:02:15.957Z,5.90
2018-12-04T03:03:19.658Z,4.57
2018-12-04T03:04:23.381Z,5.37
2018-12-04T03:05:27.041Z,4.13
2018-12-04T03:06:30.900Z,4.10
2018-12-04T03:07:34.568Z,4.73
2018-12-04T03:08:38.196Z,3.80
2018-12-04T03:09:41.867Z,4.57
2018-12-04T03:10:45.547Z,4.40
2018-12-04T03:11:49.437Z,3.77
2018-12-04T03:12:53.171Z,4.80
2018-12-04T03:13:56.754Z,4.13
2018-12-04T03:15:00.437Z,4.43
2018-12-04T03:16:04.135Z,3.53
2018-12-04T03:17:07.885Z,4.13
2018-12-04T03:18:11.533Z,4.30
2018-12-04T03:19:15.161Z,3.70
2018-12-04T03:20:18.773Z,4.43
2018-12-04T03:21:22.406Z,4.00
2018-12-04T03:22:26.104Z,4.50
2018-12-04T03:23:29.895Z,3.77
2018-12-04T03:24:33.587Z,4.10
2018-12-04T03:25:37.153Z,4.27
2018-12-04T03:26:40.891Z,4.73
2018-12-04T03:27:44.560Z,4.17
2018-12-04T03:28:48.235Z,4.13
2018-12-04T03:29:51.902Z,3.57
2018-12-04T03:30:55.664Z,3.97
2018-12-04T03:31:59.462Z,3.73
2018-12-04T03:33:03.155Z,3.90
2018-12-04T03:34:06.819Z,4.17
2018-12-04T03:35:10.569Z,4.17
2018-12-04T03:36:14.324Z,4.47
2018-12-04T03:37:17.933Z,3.63
2018-12-04T03:38:21.541Z,3.83
2018-12-04T03:39:25.161Z,3.33
2018-12-04T03:40:28.966Z,3.67
2018-12-04T03:41:32.582Z,2.87
2018-12-04T03:42:36.331Z,3.67
2018-12-04T03:43:40.030Z,3.17
2018-12-04T03:44:43.715Z,3.10
2018-12-04T03:45:47.443Z,3.33
2018-12-04T03:46:51.077Z,3.40
2018-12-04T03:47:54.687Z,3.10
2018-12-04T03:48:58.380Z,3.20
2018-12-04T03:50:02.133Z,3.63
2018-12-04T03:51:05.873Z,3.57
2018-12-04T03:52:09.478Z,3.97
2018-12-04T03:53:13.154Z,4.07
2018-12-04T03:54:17.500Z,3.00
2018-12-04T03:55:21.073Z,3.20
2018-12-04T03:56:24.784Z,3.13
2018-12-04T03:57:28.432Z,3.67
2018-12-04T03:58:32.102Z,3.57
2018-12-04T03:59:35.846Z,3.33
2018-12-04T04:00:39.530Z,2.67
2018-12-04T04:01:43.214Z,3.37
2018-12-04T04:02:46.893Z,3.57
2018-12-04T04:03:50.655Z,3.10
2018-12-04T04:04:54.616Z,3.77
2018-12-04T04:05:58.366Z,3.07
2018-12-04T04:07:02.104Z,3.13
2018-12-04T04:08:05.838Z,3.13
2018-12-04T04:09:09.930Z,3.03
2018-12-04T04:10:13.713Z,3.20
2018-12-04T04:11:17.503Z,3.07
2018-12-04T04:12:21.162Z,3.33
2018-12-04T04:13:24.827Z,3.00
2018-12-04T04:14:28.440Z,3.00
2018-12-04T04:15:32.422Z,3.00
2018-12-04T04:16:36.030Z,3.27
2018-12-04T04:17:39.779Z,3.40
2018-12-04T04:18:43.507Z,3.10
2018-12-04T04:19:47.352Z,3.30
2018-12-04T04:20:51.122Z,2.97
2018-12-04T04:21:54.731Z,2.93
2018-12-04T04:22:58.531Z,2.90
2018-12-04T04:24:02.327Z,4.17
2018-12-04T04:25:06.123Z,2.93
2018-12-04T04:26:09.918Z,3.67
2018-12-04T04:27:13.610Z,2.80
2018-12-04T04:28:17.189Z,2.90
2018-12-04T04:29:20.926Z,3.40
2018-12-04T04:30:24.673Z,4.10
2018-12-04T04:31:28.414Z,3.30
2018-12-04T04:32:32.078Z,3.83
2018-12-04T04:33:35.650Z,3.63
2018-12-04T04:34:39.250Z,2.90
2018-12-04T04:35:42.859Z,3.27
2018-12-04T04:36:46.607Z,2.57
2018-12-04T04:37:50.209Z,3.03
2018-12-04T04:38:53.958Z,3.30
2018-12-04T04:39:57.621Z,3.30
2018-12-04T04:41:01.238Z,3.13
2018-12-04T04:42:05.002Z,3.00
2018-12-04T04:43:08.694Z,4.00
2018-12-04T04:44:12.407Z,3.77
2018-12-04T04:45:15.969Z,3.60
2018-12-04T04:46:19.666Z,3.23
2018-12-04T04:47:23.258Z,3.40
2018-12-04T04:48:26.878Z,3.37
2018-12-04T04:49:30.623Z,3.10
2018-12-04T04:50:34.363Z,3.23
2018-12-04T04:51:38.053Z,2.90
2018-12-04T04:52:41.663Z,2.97
2018-12-04T04:53:45.334Z,3.63
2018-12-04T04:54:49.006Z,3.13
2018-12-04T04:55:52.791Z,4.03
2018-12-04T04:56:56.496Z,3.00
2018-12-04T04:58:00.189Z,3.33
2018-12-04T04:59:03.900Z,3.53
2018-12-04T05:00:07.762Z,3.37
2018-12-04T05:01:11.438Z,3.27
2018-12-04T05:02:15.267Z,3.20
2018-12-04T05:03:18.913Z,3.37
2018-12-04T05:04:22.610Z,3.03
2018-12-04T05:05:28.262Z,3.03
2018-12-04T05:06:32.078Z,2.80
2018-12-04T05:07:35.858Z,3.00
2018-12-04T05:08:39.467Z,2.60
2018-12-04T05:09:43.122Z,2.83
2018-12-04T05:10:46.871Z,3.30
2018-12-04T05:11:50.489Z,3.60
2018-12-04T05:12:54.141Z,3.33
2018-12-04T05:13:57.767Z,3.43
2018-12-04T05:15:01.375Z,3.30
2018-12-04T05:16:05.152Z,3.23
2018-12-04T05:17:08.770Z,3.50
2018-12-04T05:18:12.370Z,3.33
2018-12-04T05:19:16.090Z,2.60
2018-12-04T05:20:19.784Z,3.03
2018-12-04T05:21:23.476Z,2.70
2018-12-04T05:22:27.214Z,2.90
2018-12-04T05:23:30.898Z,3.27
2018-12-04T05:24:34.516Z,2.63
2018-12-04T05:25:38.193Z,3.03
2018-12-04T05:26:41.945Z,3.33
2018-12-04T05:27:45.664Z,3.03
2018-12-04T05:28:49.389Z,3.13
2018-12-04T05:29:53.069Z,3.50
2018-12-04T05:30:56.802Z,3.50
2018-12-04T05:32:00.560Z,3.50
2018-12-04T05:33:04.309Z,3.50
2018-12-04T05:34:07.998Z,3.50
2018-12-04T05:35:11.598Z,3.93
2018-12-04T05:36:15.922Z,3.73
2018-12-04T05:37:19.538Z,3.20
2018-12-04T05:38:23.140Z,3.70
2018-12-04T05:39:27.130Z,3.07
2018-12-04T05:40:30.813Z,3.73
2018-12-04T05:41:34.553Z,3.53
2018-12-04T05:42:38.169Z,4.50
2018-12-04T05:43:41.792Z,3.60
2018-12-04T05:44:45.461Z,3.77
2018-12-04T05:45:49.135Z,2.87
2018-12-04T05:46:52.886Z,3.90
2018-12-04T05:47:56.570Z,3.10
2018-12-04T05:49:00.248Z,2.90
2018-12-04T05:50:04.884Z,2.90
2018-12-04T05:51:08.554Z,3.53
2018-12-04T05:52:12.254Z,3.40
2018-12-04T05:53:36.551Z,3.57
2018-12-04T05:54:40.229Z,3.40
2018-12-04T05:55:43.833Z,4.47
2018-12-04T05:56:47.590Z,3.83
2018-12-04T05:57:51.250Z,3.50
2018-12-04T05:58:54.943Z,3.90
2018-12-04T05:59:58.654Z,4.00
2018-12-04T06:01:02.389Z,3.70
2018-12-04T06:02:06.155Z,3.33
2018-12-04T06:03:09.761Z,2.90
2018-12-04T06:04:13.443Z,3.50
2018-12-04T06:05:17.182Z,4.23
2018-12-04T06:06:20.791Z,3.73
2018-12-04T06:07:24.409Z,3.83
2018-12-04T06:08:28.017Z,4.87
2018-12-04T06:09:31.629Z,3.47
2018-12-04T06:10:35.479Z,3.50
2018-12-04T06:11:39.221Z,4.00
2018-12-04T06:12:42.993Z,3.47
2018-12-04T06:13:46.682Z,3.10
2018-12-04T06:14:50.425Z,3.47
2018-12-04T06:15:54.233Z,3.33
2018-12-04T06:16:57.974Z,4.30
2018-12-04T06:18:01.724Z,4.13
2018-12-04T06:19:05.413Z,3.93
2018-12-04T06:20:09.118Z,4.67
2018-12-04T06:21:12.861Z,4.23
2018-12-04T06:22:16.696Z,4.63
2018-12-04T06:23:20.494Z,4.00
2018-12-04T06:24:24.131Z,4.07
2018-12-04T06:25:27.862Z,3.73
2018-12-04T06:26:31.626Z,4.23
2018-12-04T06:27:35.326Z,4.03
2018-12-04T06:28:39.173Z,3.33
2018-12-04T06:29:42.854Z,3.83
2018-12-04T06:30:46.521Z,3.33
2018-12-04T06:31:50.198Z,3.77
2018-12-04T06:32:53.890Z,3.93
2018-12-04T06:33:57.497Z,3.23
2018-12-04T06:35:01.170Z,3.17
2018-12-04T06:36:05.524Z,3.60
2018-12-04T06:37:09.094Z,4.20
2018-12-04T06:38:12.766Z,3.83
2018-12-04T06:39:16.436Z,3.63
2018-12-04T06:40:20.189Z,4.13
2018-12-04T06:41:23.942Z,2.90
2018-12-04T06:42:27.701Z,3.67
2018-12-04T06:43:31.309Z,3.83
2018-12-04T06:44:35.352Z,4.30
2018-12-04T06:45:39.126Z,4.73
2018-12-04T06:46:42.730Z,4.23
2018-12-04T06:47:46.447Z,4.13
2018-12-04T06:48:50.030Z,4.10
2018-12-04T06:49:53.718Z,3.70
2018-12-04T06:50:57.462Z,4.17
2018-12-04T06:52:01.117Z,3.43
2018-12-04T06:53:04.913Z,3.50
2018-12-04T06:54:08.605Z,3.30
2018-12-04T06:55:12.172Z,3.30
2018-12-04T06:56:15.860Z,3.47
2018-12-04T06:57:19.529Z,4.30
2018-12-04T06:58:23.153Z,4.00
2018-12-04T06:59:26.966Z,3.40
2018-12-04T07:00:30.606Z,3.53
2018-12-04T07:01:34.358Z,4.07
2018-12-04T07:02:37.957Z,3.80
2018-12-04T07:03:41.656Z,3.80
2018-12-04T07:04:45.327Z,4.03
2018-12-04T07:05:53.177Z,3.50
2018-12-04T07:06:56.857Z,3.40
2018-12-04T07:08:00.617Z,3.83
2018-12-04T07:09:06.756Z,3.13
2018-12-04T07:10:10.426Z,4.13
2018-12-04T07:11:14.029Z,3.40
2018-12-04T07:12:17.703Z,3.37
2018-12-04T07:13:21.344Z,3.53
2018-12-04T07:14:25.006Z,3.13
2018-12-04T07:15:28.624Z,3.57
2018-12-04T07:16:32.285Z,3.43
2018-12-04T07:17:35.913Z,3.60
2018-12-04T07:18:39.580Z,3.60
2018-12-04T07:19:43.172Z,3.50
2018-12-04T07:20:46.894Z,4.13
2018-12-04T07:21:50.497Z,3.87
2018-12-04T07:22:54.249Z,3.30
2018-12-04T07:23:57.822Z,3.73
2018-12-04T07:25:01.494Z,3.47
2018-12-04T07:26:05.238Z,3.03
2018-12-04T07:27:08.853Z,3.63
2018-12-04T07:28:12.465Z,3.93
2018-12-04T07:29:16.229Z,3.30
2018-12-04T07:30:19.994Z,3.67
2018-12-04T07:31:23.601Z,3.83
2018-12-04T07:32:27.433Z,4.83
2018-12-04T07:33:31.138Z,3.63
2018-12-04T07:34:34.884Z,4.80
2018-12-04T07:35:38.664Z,3.70
2018-12-04T07:36:42.257Z,4.23
2018-12-04T07:37:45.909Z,4.07
2018-12-04T07:38:49.545Z,5.83
2018-12-04T07:39:53.490Z,4.53
2018-12-04T07:40:57.116Z,4.30
2018-12-04T07:42:00.786Z,3.80
2018-12-04T07:43:04.539Z,4.67
2018-12-04T07:44:08.213Z,4.63
2018-12-04T07:45:11.951Z,4.33
2018-12-04T07:46:15.706Z,4.23
2018-12-04T07:47:19.390Z,4.27
2018-12-04T07:48:22.999Z,4.20
2018-12-04T07:49:26.618Z,4.10
2018-12-04T07:50:30.371Z,3.60
2018-12-04T07:51:34.058Z,3.07
2018-12-04T07:52:37.852Z,3.57
2018-12-04T07:53:42.169Z,3.27
2018-12-04T07:54:45.835Z,3.93
2018-12-04T07:55:49.546Z,4.63
2018-12-04T07:56:53.218Z,3.50
2018-12-04T07:57:56.933Z,4.13
2018-12-04T07:59:00.626Z,3.77
2018-12-04T08:00:06.015Z,4.00
2018-12-04T08:01:09.622Z,4.00
2018-12-04T08:02:13.226Z,3.63
2018-12-04T08:03:16.837Z,3.40
2018-12-04T08:04:20.519Z,2.90
2018-12-04T08:05:24.137Z,2.90
2018-12-04T08:06:27.746Z,3.53
2018-12-04T08:07:31.497Z,3.67
2018-12-04T08:08:35.149Z,3.67
2018-12-04T08:09:38.846Z,3.37
2018-12-04T08:10:42.470Z,3.60
2018-12-04T08:11:46.169Z,2.90
2018-12-04T08:12:50.062Z,3.23
2018-12-04T08:13:53.650Z,3.63
2018-12-04T08:14:57.249Z,4.23
2018-12-04T08:16:00.857Z,3.93
2018-12-04T08:17:04.542Z,3.67
2018-12-04T08:18:08.277Z,4.47
2018-12-04T08:19:11.963Z,4.43
2018-12-04T08:20:15.641Z,5.20
2018-12-04T08:21:19.387Z,4.10
2018-12-04T08:22:22.998Z,4.37
2018-12-04T08:23:26.813Z,3.00
2018-12-04T08:24:30.478Z,2.83
2018-12-04T08:25:34.169Z,2.50
2018-12-04T08:26:38.842Z,3.00
2018-12-04T08:27:42.461Z,2.53
2018-12-04T08:28:46.069Z,3.17
2018-12-04T08:29:49.693Z,3.40
2018-12-04T08:30:53.396Z,2.50
2018-12-04T08:31:57.214Z,2.47
2018-12-04T08:33:00.819Z,3.27
2018-12-04T08:34:04.632Z,2.50
2018-12-04T08:35:09.763Z,3.70
2018-12-04T08:36:13.452Z,2.60
2018-12-04T08:37:17.039Z,3.10
2018-12-04T08:38:20.713Z,2.73
2018-12-04T08:39:24.327Z,2.60
2018-12-04T08:40:27.944Z,3.30
2018-12-04T08:41:31.620Z,2.80
2018-12-04T08:42:35.300Z,2.63
2018-12-04T08:43:38.992Z,2.57
2018-12-04T08:44:42.604Z,2.63
2018-12-04T08:45:46.265Z,2.77
2018-12-04T08:46:50.481Z,2.77
2018-12-04T08:47:54.208Z,2.77
2018-12-04T08:48:57.877Z,2.80
2018-12-04T08:50:01.492Z,3.00
2018-12-04T08:51:05.266Z,3.10
2018-12-04T08:52:09.082Z,3.47
2018-12-04T08:53:12.687Z,3.07
2018-12-04T08:54:16.385Z,2.93
2018-12-04T08:55:20.073Z,2.93
2018-12-04T08:56:23.818Z,2.57
2018-12-04T08:57:27.430Z,3.10
2018-12-04T08:58:31.140Z,3.17
2018-12-04T08:59:34.759Z,3.37
2018-12-04T09:00:38.397Z,2.97
2018-12-04T09:01:42.057Z,3.80
2018-12-04T09:02:45.666Z,3.80
2018-12-04T09:03:49.431Z,3.40
2018-12-04T09:04:53.103Z,2.67
2018-12-04T09:05:56.781Z,3.30
2018-12-04T09:07:00.483Z,2.97
2018-12-04T09:08:09.183Z,3.33
2018-12-04T09:09:10.974Z,3.13
2018-12-04T09:10:14.668Z,2.67
2018-12-04T09:11:18.274Z,2.70
2018-12-04T09:12:21.945Z,2.50
2018-12-04T09:13:25.634Z,2.47
2018-12-04T09:14:29.265Z,2.83
2018-12-04T09:15:32.949Z,2.20
2018-12-04T09:16:36.645Z,2.80
2018-12-04T09:17:40.211Z,3.10
2018-12-04T09:18:43.922Z,2.50
2018-12-04T09:19:47.618Z,2.97
2018-12-04T09:20:51.359Z,3.30
2018-12-04T09:21:55.231Z,2.67
2018-12-04T09:22:58.914Z,2.50
2018-12-04T09:24:02.773Z,3.37
2018-12-04T09:25:06.651Z,2.57
2018-12-04T09:26:10.389Z,2.73
2018-12-04T09:27:14.097Z,2.90
2018-12-04T09:28:17.936Z,3.00
2018-12-04T09:29:21.575Z,1.97
2018-12-04T09:30:25.317Z,2.43
2018-12-04T09:31:29.005Z,2.60
2018-12-04T09:32:32.616Z,2.27
2018-12-04T09:33:36.245Z,2.47
2018-12-04T09:34:39.909Z,2.87
2018-12-04T09:35:43.610Z,2.80
2018-12-04T09:36:47.233Z,3.53
2018-12-04T09:37:50.862Z,2.93
2018-12-04T09:38:54.496Z,2.87
2018-12-04T09:39:58.102Z,3.03
2018-12-04T09:41:01.904Z,3.00
2018-12-04T09:42:05.658Z,3.37
2018-12-04T09:43:09.354Z,3.07
2018-12-04T09:44:13.066Z,3.70
2018-12-04T09:45:16.730Z,2.93
2018-12-04T09:46:20.428Z,2.60
2018-12-04T09:47:24.123Z,2.80
2018-12-04T09:48:27.861Z,3.00
2018-12-04T09:49:31.630Z,3.83
2018-12-04T09:50:35.257Z,3.13
2018-12-04T09:51:38.885Z,3.33
2018-12-04T09:52:42.590Z,2.77
2018-12-04T09:53:51.887Z,2.73
2018-12-04T09:54:51.865Z,2.87
2018-12-04T09:55:55.526Z,2.70
2018-12-04T09:56:59.218Z,2.57
2018-12-04T09:58:03.119Z,2.77
2018-12-04T09:59:06.738Z,3.07
2018-12-04T10:00:10.518Z,3.03
2018-12-04T10:01:14.143Z,3.00
2018-12-04T10:02:17.766Z,3.10
2018-12-04T10:03:21.397Z,2.87
2018-12-04T10:04:25.014Z,3.17
2018-12-04T10:05:28.629Z,3.30
2018-12-04T10:06:32.355Z,3.00
2018-12-04T10:07:36.152Z,2.97
2018-12-04T10:08:39.914Z,2.97
2018-12-04T10:09:43.602Z,3.13
2018-12-04T10:10:47.309Z,3.00
2018-12-04T10:11:50.950Z,2.83
2018-12-04T10:12:54.637Z,2.80
2018-12-04T10:13:58.508Z,3.20
2018-12-04T10:15:02.200Z,3.33
2018-12-04T10:16:05.996Z,3.40
2018-12-04T10:17:09.791Z,3.17
2018-12-04T10:18:13.373Z,2.97
2018-12-04T10:19:17.129Z,3.30
2018-12-04T10:20:20.818Z,3.20
2018-12-04T10:21:24.509Z,3.47
2018-12-04T10:22:28.205Z,3.30
2018-12-04T10:23:31.877Z,3.27
2018-12-04T10:24:35.489Z,3.10
2018-12-04T10:25:43.389Z,2.80
2018-12-04T10:26:51.342Z,3.23
2018-12-04T10:27:55.020Z,2.73
2018-12-04T10:28:58.678Z,3.63
2018-12-04T10:30:02.436Z,2.80
2018-12-04T10:31:10.482Z,2.77
2018-12-04T10:32:14.246Z,3.37
2018-12-04T10:33:17.938Z,3.20
2018-12-04T10:34:21.675Z,2.87
2018-12-04T10:35:25.277Z,3.83
2018-12-04T10:36:29.060Z,3.57
2018-12-04T10:37:32.706Z,3.10
2018-12-04T10:38:36.549Z,3.20
2018-12-04T10:39:40.241Z,3.37
2018-12-04T10:40:43.907Z,2.40
2018-12-04T10:41:47.834Z,2.70
2018-12-04T10:42:51.598Z,2.80
2018-12-04T10:43:55.215Z,3.00
2018-12-04T10:44:58.906Z,3.20
2018-12-04T10:46:02.522Z,2.63
2018-12-04T10:47:06.295Z,2.60
2018-12-04T10:48:09.912Z,2.47
2018-12-04T10:49:13.530Z,2.60
2018-12-04T10:50:17.373Z,2.30
2018-12-04T10:51:21.038Z,2.40
2018-12-04T10:52:24.798Z,2.53
2018-12-04T10:53:28.412Z,3.03
2018-12-04T10:54:32.033Z,2.53
2018-12-04T10:55:35.732Z,2.43
2018-12-04T10:56:39.350Z,3.27
2018-12-04T10:57:42.989Z,2.50
2018-12-04T10:58:46.704Z,3.10
2018-12-04T10:59:50.339Z,2.90
2018-12-04T11:00:55.096Z,1.83
2018-12-04T11:02:04.252Z,2.33
2018-12-04T11:03:14.346Z,2.30
2018-12-04T11:04:18.077Z,2.90
2018-12-04T11:05:21.770Z,2.60
2018-12-04T11:06:25.564Z,2.40
2018-12-04T11:07:29.139Z,2.10
2018-12-04T11:08:32.767Z,2.80
2018-12-04T11:09:36.529Z,2.47
2018-12-04T11:10:40.287Z,2.80
2018-12-04T11:11:44.132Z,2.40
2018-12-04T11:12:47.734Z,2.30
2018-12-04T11:13:51.349Z,3.00
2018-12-04T11:14:55.054Z,2.60
2018-12-04T11:15:58.725Z,2.53
2018-12-04T11:17:02.342Z,3.37
2018-12-04T11:18:06.097Z,2.50
2018-12-04T11:19:09.775Z,1.97
2018-12-04T11:20:13.430Z,2.33
2018-12-04T11:21:17.124Z,2.00
2018-12-04T11:22:20.849Z,1.70
2018-12-04T11:23:24.546Z,1.80
2018-12-04T11:24:28.137Z,1.83
2018-12-04T11:25:31.932Z,1.87
2018-12-04T11:26:35.730Z,2.20
2018-12-04T11:27:39.523Z,2.53
2018-12-04T11:28:43.321Z,2.10
2018-12-04T11:29:46.893Z,2.00
2018-12-04T11:30:50.593Z,2.20
2018-12-04T11:31:54.307Z,2.33
2018-12-04T11:32:57.934Z,1.90
2018-12-04T11:34:01.636Z,2.63
2018-12-04T11:35:05.715Z,2.17
2018-12-04T11:36:09.423Z,2.00
2018-12-04T11:37:13.105Z,2.23
2018-12-04T11:38:16.823Z,2.00
2018-12-04T11:39:20.552Z,3.07
2018-12-04T11:40:24.207Z,1.93
2018-12-04T11:41:28.965Z,2.00
2018-12-04T11:42:32.622Z,2.23
2018-12-04T11:43:36.346Z,2.90
2018-12-04T11:44:40.039Z,2.73
2018-12-04T11:45:43.750Z,3.00
2018-12-04T11:46:47.434Z,2.43
2018-12-04T11:47:51.201Z,2.70
2018-12-04T11:48:54.885Z,1.90
2018-12-04T11:49:58.494Z,2.87
2018-12-04T11:51:02.190Z,2.30
2018-12-04T11:52:05.801Z,2.33
2018-12-04T11:53:09.563Z,3.10
2018-12-04T11:54:13.162Z,2.43
2018-12-04T11:55:16.774Z,2.20
2018-12-04T11:56:20.541Z,2.40
2018-12-04T11:57:24.425Z,2.70
2018-12-04T11:58:28.086Z,3.20
2018-12-04T11:59:31.766Z,2.50
2018-12-04T12:00:36.579Z,3.07
2018-12-04T12:01:40.249Z,2.57
2018-12-04T12:02:43.941Z,2.63
2018-12-04T12:03:47.677Z,2.80
2018-12-04T12:04:51.285Z,2.70
2018-12-04T12:05:55.046Z,2.83
2018-12-04T12:06:58.730Z,2.80
2018-12-04T12:08:02.473Z,3.60
2018-12-04T12:09:09.234Z,3.20
2018-12-04T12:10:12.903Z,2.50
2018-12-04T12:11:16.578Z,2.80
2018-12-04T12:12:20.258Z,2.80
2018-12-04T12:13:23.875Z,3.07
2018-12-04T12:14:27.486Z,2.97
2018-12-04T12:15:31.254Z,2.40
2018-12-04T12:16:34.943Z,3.30
2018-12-04T12:17:38.541Z,3.13
2018-12-04T12:18:42.157Z,2.77
2018-12-04T12:19:45.777Z,3.20
2018-12-04T12:20:49.485Z,2.93
2018-12-04T12:21:53.165Z,3.83
2018-12-04T12:22:56.818Z,2.60
2018-12-04T12:24:00.564Z,3.23
2018-12-04T12:25:05.035Z,2.77
2018-12-04T12:26:08.781Z,3.97
2018-12-04T12:27:12.526Z,2.63
2018-12-04T12:28:16.217Z,3.60
2018-12-04T12:29:19.907Z,3.00
2018-12-04T12:30:23.658Z,2.97
2018-12-04T12:31:27.393Z,2.53
2018-12-04T12:32:31.001Z,3.20
2018-12-04T12:33:34.749Z,2.50
2018-12-04T12:34:38.450Z,2.90
2018-12-04T12:35:42.207Z,3.10
2018-12-04T12:36:45.842Z,3.27
2018-12-04T12:37:49.445Z,2.70
2018-12-04T12:38:53.198Z,2.90
2018-12-04T12:39:56.901Z,3.07
2018-12-04T12:41:00.590Z,3.23
2018-12-04T12:42:04.391Z,2.90
2018-12-04T12:43:08.189Z,2.80
2018-12-04T12:44:11.875Z,2.97
2018-12-04T12:45:15.544Z,2.80
2018-12-04T12:46:19.295Z,2.83
2018-12-04T12:47:22.973Z,3.10
2018-12-04T12:48:26.586Z,3.10
2018-12-04T12:49:30.299Z,3.20
2018-12-04T12:50:33.973Z,3.07
2018-12-04T12:51:37.593Z,2.87
2018-12-04T12:52:41.213Z,3.07
2018-12-04T12:53:44.984Z,3.60
2018-12-04T12:54:48.686Z,2.70
2018-12-04T12:55:52.343Z,3.30
2018-12-04T12:56:56.062Z,3.00
2018-12-04T12:57:59.638Z,3.20
2018-12-04T12:59:03.397Z,3.70
2018-12-04T13:00:08.516Z,3.67
2018-12-04T13:01:12.263Z,2.73
2018-12-04T13:02:15.976Z,4.00
2018-12-04T13:03:19.663Z,3.13
2018-12-04T13:04:23.278Z,2.97
2018-12-04T13:05:26.974Z,3.20
2018-12-04T13:06:30.730Z,3.03
2018-12-04T13:07:34.415Z,3.30
2018-12-04T13:08:38.091Z,3.03
2018-12-04T13:09:42.286Z,3.53
2018-12-04T13:10:45.981Z,3.33
2018-12-04T13:11:49.672Z,3.27
2018-12-04T13:12:53.353Z,2.67
2018-12-04T13:13:57.033Z,2.77
2018-12-04T13:15:00.806Z,2.77
2018-12-04T13:16:04.592Z,3.40
2018-12-04T13:17:08.209Z,2.80
2018-12-04T13:18:11.965Z,2.97
2018-12-04T13:19:15.904Z,3.03
2018-12-04T13:20:19.660Z,3.50
2018-12-04T13:21:23.352Z,3.90
2018-12-04T13:22:26.922Z,3.13
2018-12-04T13:23:30.609Z,3.50
2018-12-04T13:24:34.349Z,2.60
2018-12-04T13:25:38.153Z,3.03
2018-12-04T13:26:41.838Z,3.37
2018-12-04T13:27:45.510Z,3.00
2018-12-04T13:28:49.132Z,3.30
2018-12-04T13:29:52.797Z,3.60
2018-12-04T13:30:56.488Z,3.13
2018-12-04T13:32:00.219Z,3.00
2018-12-04T13:33:03.922Z,3.37
2018-12-04T13:34:07.686Z,3.73
2018-12-04T13:35:11.482Z,2.70
2018-12-04T13:36:15.255Z,3.70
2018-12-04T13:37:19.050Z,2.80
2018-12-04T13:38:22.816Z,2.30
2018-12-04T13:39:26.617Z,3.20
2018-12-04T13:40:30.338Z,3.00
2018-12-04T13:41:34.125Z,2.97
2018-12-04T13:42:37.865Z,2.30
2018-12-04T13:43:41.550Z,2.67
2018-12-04T13:44:45.219Z,2.47
2018-12-04T13:45:49.111Z,2.60
2018-12-04T13:46:52.911Z,2.60
2018-12-04T13:47:56.483Z,2.50
2018-12-04T13:49:00.156Z,2.40
2018-12-04T13:50:04.370Z,2.30
2018-12-04T13:51:08.084Z,3.00
2018-12-04T13:52:12.613Z,2.90
2018-12-04T13:53:16.353Z,2.87
2018-12-04T13:54:19.987Z,2.93
2018-12-04T13:55:23.722Z,2.87
2018-12-04T13:56:27.434Z,2.83
2018-12-04T13:57:31.136Z,2.63
2018-12-04T13:58:34.851Z,2.80
2018-12-04T13:59:38.433Z,2.87
2018-12-04T14:00:42.119Z,2.93
2018-12-04T14:01:45.937Z,2.90
2018-12-04T14:02:49.565Z,3.00
2018-12-04T14:03:53.374Z,3.87
2018-12-04T14:04:57.054Z,3.70
2018-12-04T14:06:00.739Z,3.67
2018-12-04T14:07:05.016Z,3.60
2018-12-04T14:08:08.811Z,3.10
2018-12-04T14:09:13.013Z,3.13